Terminal Aerodrome Forecast
Issued by NWS

Home | Current Version | Previous Version | Text Only | Print | Product List | Glossary On
Versions: 1 2 3 4 5 6 7 8 9 10 11 12 13 14 15 16
000
FTUS41 KBTV 231730
TAFMPV
TAF
KMPV 231730Z 2318/2418 17010KT P6SM SCT130 BKN200
     FM232000 17010KT P6SM BKN110
     FM240200 16011G20KT P6SM BKN030
     FM241000 15014G24KT P6SM VCSH OVC020
     FM241400 16016G33KT 6SM -RA BR OVC020=

USA.gov is the U.S. government's official web portal to all federal, state and local government web resources and services.